createdAt,value
2023-05-10T00:00:47.459Z,5.10
2023-05-10T00:03:15.545Z,1.80
2023-05-10T00:05:43.654Z,4.40
2023-05-10T00:10:39.622Z,5.00
2023-05-10T00:13:08.092Z,6.20
2023-05-10T00:15:36.249Z,6.20
2023-05-10T00:18:04.352Z,6.40
2023-05-10T00:20:32.782Z,4.60
2023-05-10T00:23:00.852Z,5.20
2023-05-10T00:25:28.916Z,3.70
2023-05-10T00:27:58.299Z,4.70
2023-05-10T00:30:26.425Z,4.70
2023-05-10T00:32:54.827Z,4.40
2023-05-10T00:35:23.138Z,3.80
2023-05-10T00:37:51.187Z,4.40
2023-05-10T00:40:19.412Z,5.00
2023-05-10T00:42:50.342Z,5.90
2023-05-10T00:45:18.528Z,5.60
2023-05-10T00:47:46.670Z,4.50
2023-05-10T00:50:16.741Z,5.30
2023-05-10T00:52:45.245Z,4.30
2023-05-10T00:55:14.714Z,5.00
2023-05-10T00:57:43.652Z,4.20
2023-05-10T01:00:13.541Z,3.90
2023-05-10T01:02:42.668Z,4.50
2023-05-10T01:05:10.985Z,3.00
2023-05-10T01:07:39.689Z,5.50
2023-05-10T01:10:09.381Z,4.30
2023-05-10T01:12:40.887Z,4.50
2023-05-10T01:15:11.954Z,4.30
2023-05-10T01:17:41.737Z,4.40
2023-05-10T01:20:11.585Z,3.90
2023-05-10T01:22:39.523Z,4.80
2023-05-10T01:25:26.514Z,4.70
2023-05-10T01:28:11.000Z,3.70
2023-05-10T01:31:03.809Z,4.00
2023-05-10T01:33:36.986Z,3.50
2023-05-10T01:36:14.941Z,4.20
2023-05-10T01:38:51.730Z,3.90
2023-05-10T01:41:30.229Z,3.30
2023-05-10T01:44:01.383Z,4.50
2023-05-10T01:46:59.283Z,4.30
2023-05-10T01:49:35.945Z,4.70
2023-05-10T01:52:15.250Z,4.20
2023-05-10T01:54:50.294Z,4.30
2023-05-10T01:57:21.671Z,4.90
2023-05-10T01:59:52.412Z,4.20
2023-05-10T02:02:22.314Z,4.30
2023-05-10T02:04:53.284Z,3.80
2023-05-10T02:07:22.952Z,4.10
2023-05-10T02:09:52.268Z,4.00
2023-05-10T02:12:22.346Z,5.30
2023-05-10T02:14:53.977Z,4.50
2023-05-10T02:17:23.489Z,3.80
2023-05-10T02:19:54.366Z,4.20
2023-05-10T02:22:23.469Z,3.80
2023-05-10T02:24:52.127Z,4.00
2023-05-10T02:27:21.704Z,3.90
2023-05-10T02:29:51.805Z,4.00
2023-05-10T02:32:20.451Z,4.00
2023-05-10T02:34:52.986Z,3.70
2023-05-10T02:37:23.126Z,4.90
2023-05-10T02:39:53.332Z,3.90
2023-05-10T02:42:26.920Z,3.10
2023-05-10T02:45:01.192Z,3.90
2023-05-10T02:47:30.260Z,5.30
2023-05-10T02:49:58.492Z,5.10
2023-05-10T02:52:29.405Z,5.00
2023-05-10T02:55:02.150Z,4.70
2023-05-10T02:57:36.686Z,4.20
2023-05-10T03:00:06.014Z,4.40
2023-05-10T03:02:34.520Z,3.50
2023-05-10T03:05:03.846Z,4.40
2023-05-10T03:07:32.322Z,4.80
2023-05-10T03:10:01.384Z,4.80
2023-05-10T03:12:41.615Z,4.70
2023-05-10T03:15:28.044Z,4.70
2023-05-10T03:18:10.599Z,5.10
2023-05-10T03:20:49.923Z,5.20
2023-05-10T03:23:42.368Z,5.50
2023-05-10T03:26:16.938Z,5.60
2023-05-10T03:28:46.591Z,5.10
2023-05-10T03:31:15.285Z,5.60
2023-05-10T03:33:51.415Z,5.80
2023-05-10T03:36:23.913Z,4.90
2023-05-10T03:38:52.249Z,5.10
2023-05-10T03:41:21.705Z,4.30
2023-05-10T03:43:49.919Z,5.80
2023-05-10T03:46:18.263Z,5.40
2023-05-10T03:48:46.920Z,5.20
2023-05-10T03:51:15.216Z,4.70
2023-05-10T03:53:43.609Z,4.70
2023-05-10T03:56:12.080Z,5.30
2023-05-10T03:58:40.407Z,4.00
2023-05-10T04:01:08.752Z,4.70
2023-05-10T04:03:37.908Z,5.80
2023-05-10T04:06:09.302Z,5.60
2023-05-10T04:08:37.349Z,4.50
2023-05-10T04:11:10.351Z,5.40
2023-05-10T04:13:39.242Z,6.70
2023-05-10T04:16:07.855Z,5.00
2023-05-10T04:18:36.465Z,4.80
2023-05-10T04:21:04.885Z,5.40
2023-05-10T04:26:02.532Z,4.60
2023-05-10T04:28:30.614Z,4.20
2023-05-10T04:31:10.209Z,5.30
2023-05-10T04:33:38.232Z,4.90
2023-05-10T04:36:06.762Z,6.20
2023-05-10T04:38:34.710Z,7.40
2023-05-10T04:41:08.173Z,8.50
2023-05-10T04:43:37.397Z,9.60
2023-05-10T04:46:06.222Z,8.90
2023-05-10T04:48:34.733Z,7.60
2023-05-10T04:51:04.610Z,6.60
2023-05-10T04:53:32.734Z,6.50
2023-05-10T04:56:00.794Z,7.00
2023-05-10T04:58:28.905Z,7.00
2023-05-10T05:00:57.349Z,7.00
2023-05-10T05:03:25.712Z,6.20
2023-05-10T05:05:53.966Z,6.50
2023-05-10T05:08:22.059Z,6.20
2023-05-10T05:10:51.266Z,4.30
2023-05-10T05:13:19.865Z,8.50
2023-05-10T05:15:48.071Z,6.80
2023-05-10T05:18:16.194Z,5.00
2023-05-10T05:20:44.302Z,4.80
2023-05-10T05:23:12.723Z,5.20
2023-05-10T05:25:40.769Z,5.00
2023-05-10T05:28:08.858Z,3.90
2023-05-10T05:30:36.917Z,5.00
2023-05-10T05:33:05.181Z,4.10
2023-05-10T05:35:33.453Z,3.70
2023-05-10T05:38:02.064Z,3.80
2023-05-10T05:40:30.323Z,4.20
2023-05-10T05:42:58.400Z,4.30
2023-05-10T05:45:26.466Z,3.90
2023-05-10T05:47:54.477Z,4.90
2023-05-10T05:50:22.563Z,4.00
2023-05-10T05:52:50.968Z,3.60
2023-05-10T05:55:19.401Z,9.00
2023-05-10T05:57:48.182Z,6.40
2023-05-10T06:00:17.219Z,4.20
2023-05-10T06:02:46.772Z,3.70
2023-05-10T06:05:16.892Z,5.10
2023-05-10T06:07:45.580Z,3.10
2023-05-10T06:10:14.077Z,2.70
2023-05-10T06:12:42.750Z,3.30
2023-05-10T06:15:11.695Z,5.30
2023-05-10T06:17:40.046Z,3.30
2023-05-10T06:20:08.952Z,2.80
2023-05-10T06:22:37.291Z,3.70
2023-05-10T06:25:06.407Z,2.80
2023-05-10T06:27:34.688Z,2.20
2023-05-10T06:30:12.287Z,2.90
2023-05-10T06:32:41.379Z,3.50
2023-05-10T06:35:10.344Z,3.20
2023-05-10T06:40:08.505Z,2.50
2023-05-10T06:42:36.607Z,3.60
2023-05-10T06:45:05.230Z,3.60
2023-05-10T06:47:33.338Z,3.70
2023-05-10T06:50:01.892Z,4.00
2023-05-10T06:52:29.854Z,3.20
2023-05-10T06:54:58.735Z,3.00
2023-05-10T06:57:31.828Z,2.20
2023-05-10T07:00:00.517Z,2.30
2023-05-10T07:02:29.152Z,3.10
2023-05-10T07:04:59.471Z,2.00
2023-05-10T07:07:29.942Z,2.60
2023-05-10T07:09:58.804Z,2.60
2023-05-10T07:12:27.224Z,2.90
2023-05-10T07:14:55.687Z,5.30
2023-05-10T07:17:23.883Z,2.90
2023-05-10T07:19:52.255Z,4.10
2023-05-10T07:22:20.460Z,4.20
2023-05-10T07:24:48.584Z,5.60
2023-05-10T07:27:17.093Z,4.10
2023-05-10T07:32:13.641Z,2.90
2023-05-10T07:34:42.304Z,3.70
2023-05-10T07:37:10.422Z,3.30
2023-05-10T07:39:39.027Z,3.30
2023-05-10T07:42:07.372Z,3.30
2023-05-10T07:44:35.557Z,3.10
2023-05-10T07:47:03.836Z,3.20
2023-05-10T07:49:32.060Z,3.00
2023-05-10T07:52:00.456Z,4.10
2023-05-10T07:54:28.976Z,3.10
2023-05-10T07:56:57.354Z,3.80
2023-05-10T07:59:25.545Z,3.10
2023-05-10T08:01:53.861Z,4.00
2023-05-10T08:04:22.402Z,3.10
2023-05-10T08:06:50.996Z,4.10
2023-05-10T08:09:19.171Z,2.20
2023-05-10T08:11:47.444Z,2.40
2023-05-10T08:14:15.460Z,2.50
2023-05-10T08:16:43.508Z,3.10
2023-05-10T08:19:11.749Z,3.20
2023-05-10T08:21:41.585Z,2.40
2023-05-10T08:24:09.631Z,2.20
2023-05-10T08:26:37.934Z,2.50
2023-05-10T08:29:06.714Z,2.80
2023-05-10T08:31:35.005Z,3.50
2023-05-10T08:36:33.146Z,2.90
2023-05-10T08:39:01.411Z,2.90
2023-05-10T08:41:34.457Z,2.40
2023-05-10T08:44:05.651Z,2.40
2023-05-10T08:46:40.724Z,3.40
2023-05-10T08:49:10.414Z,2.40
2023-05-10T08:51:45.172Z,2.90
2023-05-10T08:54:14.330Z,2.40
2023-05-10T08:56:42.936Z,2.40
2023-05-10T08:59:12.538Z,2.20
2023-05-10T09:01:43.594Z,2.70
2023-05-10T09:04:13.311Z,2.70
2023-05-10T09:06:42.547Z,2.30
2023-05-10T09:09:11.310Z,3.00
2023-05-10T09:14:08.086Z,3.30
2023-05-10T09:16:36.493Z,3.30
2023-05-10T09:19:07.720Z,2.20
2023-05-10T09:21:41.894Z,2.40
2023-05-10T09:24:10.400Z,3.30
2023-05-10T09:26:51.243Z,2.10
2023-05-10T09:29:19.475Z,1.90
2023-05-10T09:31:56.458Z,1.80
2023-05-10T09:34:33.331Z,5.00
2023-05-10T09:37:03.830Z,1.90
2023-05-10T09:39:36.827Z,2.40
2023-05-10T09:42:07.449Z,2.60
2023-05-10T09:44:36.427Z,2.20
2023-05-10T09:47:05.328Z,1.80
2023-05-10T09:52:07.641Z,2.30
2023-05-10T09:54:37.208Z,3.60
2023-05-10T09:57:06.236Z,1.70
2023-05-10T09:59:36.455Z,1.50
2023-05-10T10:02:04.752Z,2.00
2023-05-10T10:04:33.859Z,2.20
2023-05-10T10:07:06.391Z,1.60
2023-05-10T10:09:35.997Z,2.10
2023-05-10T10:12:05.783Z,1.70
2023-05-10T10:14:35.644Z,2.00
2023-05-10T10:17:08.137Z,2.00
2023-05-10T10:19:38.225Z,2.10
2023-05-10T10:22:07.363Z,3.60
2023-05-10T10:24:35.474Z,1.60
2023-05-10T10:27:24.895Z,2.80
2023-05-10T10:30:04.310Z,3.00
2023-05-10T10:32:53.975Z,1.90
2023-05-10T10:35:23.179Z,2.00
2023-05-10T10:37:52.165Z,2.60
2023-05-10T10:40:35.289Z,4.70
2023-05-10T10:43:28.206Z,4.00
2023-05-10T10:46:18.146Z,4.40
2023-05-10T10:48:52.778Z,6.00
2023-05-10T10:51:21.280Z,2.60
2023-05-10T10:53:49.733Z,2.30
2023-05-10T10:56:24.841Z,2.60
2023-05-10T10:58:54.665Z,2.00
2023-05-10T11:01:23.044Z,3.30
2023-05-10T11:04:06.719Z,3.00
2023-05-10T11:06:37.312Z,3.60
2023-05-10T11:09:10.150Z,2.40
2023-05-10T11:11:52.056Z,2.50
2023-05-10T11:14:23.632Z,2.50
2023-05-10T11:16:52.288Z,1.90
2023-05-10T11:19:21.257Z,1.60
2023-05-10T11:21:52.888Z,1.80
2023-05-10T11:24:24.177Z,3.50
2023-05-10T11:26:52.957Z,2.00
2023-05-10T11:29:21.395Z,1.70
2023-05-10T11:31:50.705Z,1.80
2023-05-10T11:34:31.520Z,2.60
2023-05-10T11:37:01.793Z,1.60
2023-05-10T11:39:32.017Z,1.90
2023-05-10T11:42:01.350Z,3.90
2023-05-10T11:44:35.937Z,2.40
2023-05-10T11:47:04.401Z,1.90
2023-05-10T11:49:33.105Z,1.90
2023-05-10T11:52:08.822Z,2.90
2023-05-10T11:54:37.017Z,2.20
2023-05-10T11:57:05.614Z,1.80
2023-05-10T11:59:33.876Z,1.90
2023-05-10T12:02:02.221Z,2.50
2023-05-10T12:04:31.317Z,0.80
2023-05-10T12:06:59.923Z,2.10
2023-05-10T12:11:59.256Z,2.40
2023-05-10T12:14:27.543Z,1.90
2023-05-10T12:16:58.308Z,1.90
2023-05-10T12:19:26.444Z,1.60
2023-05-10T12:21:54.943Z,2.50
2023-05-10T12:24:23.225Z,1.40
2023-05-10T12:26:51.508Z,2.10
2023-05-10T12:29:20.299Z,2.10
2023-05-10T12:37:04.147Z,5.90
2023-05-10T12:39:46.584Z,1.90
2023-05-10T12:42:15.125Z,4.10
2023-05-10T12:44:43.383Z,1.60
2023-05-10T12:47:12.008Z,3.40
2023-05-10T12:49:40.327Z,2.20
2023-05-10T12:52:08.639Z,2.70
2023-05-10T12:54:37.029Z,2.10
2023-05-10T12:57:05.469Z,2.60
2023-05-10T13:02:04.218Z,2.00
2023-05-10T13:04:32.480Z,2.70
2023-05-10T13:07:00.613Z,2.20
2023-05-10T13:09:31.422Z,2.30
2023-05-10T13:11:59.660Z,3.20
2023-05-10T13:14:28.039Z,3.00
2023-05-10T13:16:56.347Z,2.80
2023-05-10T13:19:24.503Z,3.90
2023-05-10T13:21:52.653Z,4.20
2023-05-10T13:24:21.024Z,2.20
2023-05-10T13:26:49.711Z,4.00
2023-05-10T13:29:19.213Z,2.10
2023-05-10T13:31:47.588Z,2.40
2023-05-10T13:34:15.859Z,1.80
2023-05-10T13:36:43.997Z,2.10
2023-05-10T13:39:12.058Z,2.50
2023-05-10T13:41:40.692Z,2.20
2023-05-10T13:44:08.778Z,2.00
2023-05-10T13:46:36.817Z,3.70
2023-05-10T13:49:05.156Z,2.30
2023-05-10T13:51:34.966Z,2.10
2023-05-10T13:54:04.365Z,2.50
2023-05-10T13:56:32.500Z,3.40
2023-05-10T13:59:01.003Z,2.60
2023-05-10T14:01:29.241Z,3.70
2023-05-10T14:03:57.400Z,2.70
2023-05-10T14:06:25.507Z,2.20
2023-05-10T14:08:54.926Z,2.80
2023-05-10T14:11:24.859Z,2.70
2023-05-10T14:13:53.106Z,2.60
2023-05-10T14:16:21.495Z,2.00
2023-05-10T14:18:49.931Z,3.30
2023-05-10T14:21:18.157Z,1.90
2023-05-10T14:23:46.363Z,2.70
2023-05-10T14:26:14.618Z,2.40
2023-05-10T14:28:42.853Z,1.80
2023-05-10T14:31:11.107Z,1.90
2023-05-10T14:33:39.127Z,2.10
2023-05-10T14:36:08.053Z,2.60
2023-05-10T14:38:36.217Z,1.90
2023-05-10T14:41:04.564Z,2.50
2023-05-10T14:43:32.757Z,2.60
2023-05-10T14:46:01.065Z,2.40
2023-05-10T14:48:29.219Z,2.40
2023-05-10T14:50:57.295Z,2.70
2023-05-10T14:53:25.704Z,2.60
2023-05-10T14:55:54.025Z,2.00
2023-05-10T14:58:22.385Z,1.80
2023-05-10T15:00:50.661Z,1.60
2023-05-10T15:03:19.814Z,1.80
2023-05-10T15:05:48.383Z,1.70
2023-05-10T15:08:16.419Z,1.90
2023-05-10T15:13:12.322Z,1.80
2023-05-10T15:15:40.745Z,2.00
2023-05-10T15:18:10.704Z,1.80
2023-05-10T15:20:38.962Z,1.80
2023-05-10T15:23:06.983Z,1.50
2023-05-10T15:25:38.684Z,1.80
2023-05-10T15:28:06.746Z,1.60
2023-05-10T15:30:35.016Z,1.60
2023-05-10T15:33:03.449Z,1.90
2023-05-10T15:35:31.649Z,1.70
2023-05-10T15:37:59.726Z,2.30
2023-05-10T15:40:27.805Z,2.00
2023-05-10T15:42:56.108Z,1.50
2023-05-10T15:45:24.369Z,3.00
2023-05-10T15:47:52.563Z,1.80
2023-05-10T15:50:21.071Z,2.00
2023-05-10T15:52:49.700Z,1.90
2023-05-10T15:55:18.155Z,1.90
2023-05-10T15:57:47.060Z,1.70
2023-05-10T16:00:15.910Z,3.40
2023-05-10T16:02:44.123Z,2.20
2023-05-10T16:05:12.514Z,2.80
2023-05-10T16:07:42.060Z,2.50
2023-05-10T16:10:11.370Z,1.90
2023-05-10T16:12:40.580Z,1.20
2023-05-10T16:15:09.300Z,10.80
2023-05-10T16:17:37.936Z,2.30
2023-05-10T16:22:36.534Z,3.40
2023-05-10T16:25:05.379Z,2.30
2023-05-10T16:27:33.717Z,2.20
2023-05-10T16:30:02.149Z,2.30
2023-05-10T16:32:30.375Z,2.20
2023-05-10T16:34:59.216Z,1.90
2023-05-10T16:37:28.223Z,2.10
2023-05-10T16:39:56.691Z,1.70
2023-05-10T16:44:55.053Z,1.70
2023-05-10T16:52:19.507Z,2.40
2023-05-10T16:54:47.648Z,2.30
2023-05-10T16:57:16.219Z,2.20
2023-05-10T17:02:12.548Z,2.50
2023-05-10T17:04:41.072Z,3.00
2023-05-10T17:07:09.069Z,2.60
2023-05-10T17:09:37.118Z,2.30
2023-05-10T17:12:05.851Z,5.70
2023-05-10T17:14:34.249Z,10.90
2023-05-10T17:17:02.506Z,5.50
2023-05-10T17:19:31.237Z,4.50
2023-05-10T17:21:59.450Z,3.90
2023-05-10T17:24:29.869Z,3.80
2023-05-10T17:26:57.906Z,3.40
2023-05-10T17:29:27.182Z,4.00
2023-05-10T17:31:55.727Z,3.00
2023-05-10T17:36:52.251Z,2.00
2023-05-10T17:39:20.516Z,2.50
2023-05-10T17:41:48.627Z,3.30
2023-05-10T17:44:16.910Z,3.20
2023-05-10T17:46:44.914Z,4.50
2023-05-10T17:49:13.129Z,4.00
2023-05-10T17:51:44.132Z,2.70
2023-05-10T17:54:12.218Z,3.20
2023-05-10T17:56:40.942Z,3.80
2023-05-10T17:59:09.117Z,2.60
2023-05-10T18:01:37.111Z,2.40
2023-05-10T18:04:06.203Z,3.80
2023-05-10T18:06:38.384Z,3.50
2023-05-10T18:09:07.444Z,3.80
2023-05-10T18:11:36.826Z,3.10
2023-05-10T18:14:05.100Z,3.90
2023-05-10T18:16:33.544Z,2.00
2023-05-10T18:19:01.918Z,4.60
2023-05-10T18:21:30.084Z,3.60
2023-05-10T18:23:58.246Z,5.00
2023-05-10T18:26:26.976Z,4.60
2023-05-10T18:28:55.360Z,4.50
2023-05-10T18:31:23.960Z,4.30
2023-05-10T18:33:52.487Z,3.80
2023-05-10T18:36:23.222Z,3.60
2023-05-10T18:38:51.271Z,3.40
2023-05-10T18:41:19.298Z,5.70
2023-05-10T18:43:47.682Z,6.90
2023-05-10T18:46:16.024Z,8.80
2023-05-10T18:48:44.310Z,7.40
2023-05-10T18:51:12.891Z,7.00
2023-05-10T18:53:41.146Z,4.50
2023-05-10T18:56:11.778Z,4.60
2023-05-10T18:58:40.494Z,6.60
2023-05-10T19:01:09.107Z,6.60
2023-05-10T19:06:05.484Z,7.90
2023-05-10T19:08:33.951Z,5.90
2023-05-10T19:11:02.111Z,7.70
2023-05-10T19:13:30.552Z,7.00
2023-05-10T19:16:06.666Z,7.30
2023-05-10T19:18:35.239Z,11.90
2023-05-10T19:21:05.841Z,16.70
2023-05-10T19:23:34.980Z,11.10
2023-05-10T19:26:03.167Z,8.80
2023-05-10T19:28:31.976Z,8.60
2023-05-10T19:31:00.407Z,9.20
2023-05-10T19:33:29.397Z,7.70
2023-05-10T19:38:26.182Z,5.60
2023-05-10T19:40:58.396Z,6.40
2023-05-10T19:43:34.260Z,8.10
2023-05-10T19:46:03.650Z,8.80
2023-05-10T19:48:32.044Z,6.60
2023-05-10T19:51:07.568Z,6.60
2023-05-10T19:53:37.956Z,5.80
2023-05-10T19:56:07.179Z,6.40
2023-05-10T19:58:35.440Z,4.40
2023-05-10T20:01:05.870Z,4.70
2023-05-10T20:03:35.126Z,4.40
2023-05-10T20:06:04.304Z,4.90
2023-05-10T20:08:32.453Z,4.10
2023-05-10T20:11:02.793Z,5.70
2023-05-10T20:13:30.962Z,4.40
2023-05-10T20:15:59.980Z,5.60
2023-05-10T20:18:28.297Z,5.40
2023-05-10T20:20:59.220Z,3.60
2023-05-10T20:23:27.418Z,4.00
2023-05-10T20:25:56.060Z,6.70
2023-05-10T20:28:26.377Z,9.30
2023-05-10T20:30:55.884Z,11.10
2023-05-10T20:33:25.820Z,12.20
2023-05-10T20:35:54.098Z,8.50
2023-05-10T20:38:22.860Z,6.90
2023-05-10T20:40:51.005Z,5.00
2023-05-10T20:43:20.816Z,6.00
2023-05-10T20:45:49.081Z,4.50
2023-05-10T20:48:17.776Z,4.10
2023-05-10T20:53:14.833Z,7.50
2023-05-10T20:55:42.854Z,6.90
2023-05-10T20:58:10.913Z,8.70
2023-05-10T21:00:39.102Z,7.80
2023-05-10T21:03:07.314Z,4.70
2023-05-10T21:05:36.187Z,3.70
2023-05-10T21:10:32.337Z,5.00
2023-05-10T21:13:00.536Z,8.00
2023-05-10T21:15:28.948Z,6.90
2023-05-10T21:17:57.599Z,6.80
2023-05-10T21:20:26.037Z,5.40
2023-05-10T21:22:54.129Z,5.20
2023-05-10T21:25:23.640Z,4.40
2023-05-10T21:27:51.848Z,5.90
2023-05-10T21:30:20.660Z,7.30
2023-05-10T21:32:48.712Z,5.60
2023-05-10T21:35:16.846Z,7.50
2023-05-10T21:37:44.874Z,4.50
2023-05-10T21:40:13.336Z,3.80
2023-05-10T21:42:41.332Z,4.20
2023-05-10T21:45:10.217Z,4.00
2023-05-10T21:47:38.251Z,3.80
2023-05-10T21:50:07.531Z,4.30
2023-05-10T21:52:36.298Z,4.70
2023-05-10T21:55:05.315Z,3.70
2023-05-10T21:57:33.434Z,2.60
2023-05-10T22:00:01.524Z,3.10
2023-05-10T22:02:32.662Z,3.30
2023-05-10T22:05:02.205Z,2.80
2023-05-10T22:07:33.634Z,2.80
2023-05-10T22:10:01.834Z,3.30
2023-05-10T22:12:29.923Z,4.00
2023-05-10T22:15:09.320Z,3.70
2023-05-10T22:17:40.048Z,3.80
2023-05-10T22:20:09.324Z,3.90
2023-05-10T22:22:37.705Z,4.60
2023-05-10T22:25:07.479Z,3.50
2023-05-10T22:27:35.640Z,3.90
2023-05-10T22:30:04.462Z,3.40
2023-05-10T22:32:33.354Z,4.70
2023-05-10T22:35:01.610Z,4.20
2023-05-10T22:37:29.793Z,4.30
2023-05-10T22:39:57.894Z,5.60
2023-05-10T22:42:26.010Z,5.70
2023-05-10T22:44:54.079Z,5.90
2023-05-10T22:47:22.228Z,4.00
2023-05-10T22:49:50.623Z,3.30
2023-05-10T22:52:18.748Z,3.10
2023-05-10T22:54:46.972Z,3.20
2023-05-10T22:57:16.399Z,3.10
2023-05-10T22:59:44.566Z,2.90
2023-05-10T23:02:14.334Z,2.40
2023-05-10T23:04:42.531Z,2.60
2023-05-10T23:07:11.685Z,2.70
2023-05-10T23:09:39.838Z,2.30
2023-05-10T23:12:07.846Z,2.40
2023-05-10T23:14:35.908Z,3.00
2023-05-10T23:17:03.912Z,2.30
2023-05-10T23:19:32.245Z,2.80
2023-05-10T23:22:00.332Z,3.00
2023-05-10T23:24:29.167Z,2.50
2023-05-10T23:26:57.330Z,2.90
2023-05-10T23:29:26.398Z,2.50
2023-05-10T23:31:54.591Z,2.80
2023-05-10T23:34:22.670Z,2.90
2023-05-10T23:36:50.611Z,2.50
2023-05-10T23:39:19.125Z,2.80
2023-05-10T23:41:47.219Z,2.30
2023-05-10T23:44:15.634Z,2.20
2023-05-10T23:46:43.686Z,3.00
2023-05-10T23:49:12.004Z,2.80
2023-05-10T23:51:40.599Z,2.30
2023-05-10T23:54:08.912Z,2.00
2023-05-10T23:56:37.719Z,2.10
